sensor_id;sensor_type;location;lat;lon;timestamp;P1;durP1;ratioP1;P2;durP2;ratioP2
54515;SDS011;40422;45.892;4.738;2023-02-24T04:04:49;21.58;;;10.60;;
54515;SDS011;40422;45.892;4.738;2023-02-24T04:07:27;18.60;;;10.05;;
54515;SDS011;40422;45.892;4.738;2023-02-24T04:12:49;20.35;;;9.48;;
54515;SDS011;40422;45.892;4.738;2023-02-24T04:15:41;18.75;;;10.18;;
54515;SDS011;40422;45.892;4.738;2023-02-24T04:18:18;18.80;;;10.10;;
54515;SDS011;40422;45.892;4.738;2023-02-24T04:20:47;18.48;;;9.57;;
54515;SDS011;40422;45.892;4.738;2023-02-24T04:23:16;18.52;;;9.82;;
54515;SDS011;40422;45.892;4.738;2023-02-24T04:25:47;21.35;;;10.07;;
54515;SDS011;40422;45.892;4.738;2023-02-24T04:28:15;21.30;;;11.57;;
54515;SDS011;40422;45.892;4.738;2023-02-24T04:30:46;21.98;;;12.25;;
54515;SDS011;40422;45.892;4.738;2023-02-24T04:33:14;23.67;;;12.32;;
54515;SDS011;40422;45.892;4.738;2023-02-24T04:35:43;23.58;;;13.13;;
54515;SDS011;40422;45.892;4.738;2023-02-24T04:38:09;28.17;;;12.50;;
54515;SDS011;40422;45.892;4.738;2023-02-24T04:40:35;24.92;;;13.32;;
54515;SDS011;40422;45.892;4.738;2023-02-24T04:43:00;23.35;;;12.40;;
54515;SDS011;40422;45.892;4.738;2023-02-24T04:45:29;22.35;;;13.43;;
54515;SDS011;40422;45.892;4.738;2023-02-24T04:47:57;22.00;;;11.70;;
54515;SDS011;40422;45.892;4.738;2023-02-24T04:50:33;20.70;;;9.98;;
54515;SDS011;40422;45.892;4.738;2023-02-24T04:53:00;19.20;;;10.02;;
54515;SDS011;40422;45.892;4.738;2023-02-24T04:55:43;16.53;;;9.43;;
54515;SDS011;40422;45.892;4.738;2023-02-24T04:58:14;18.25;;;8.68;;
54515;SDS011;40422;45.892;4.738;2023-02-24T05:00:43;18.58;;;10.32;;
54515;SDS011;40422;45.892;4.738;2023-02-24T05:03:13;16.48;;;9.23;;
54515;SDS011;40422;45.892;4.738;2023-02-24T05:05:39;18.70;;;10.05;;
54515;SDS011;40422;45.892;4.738;2023-02-24T05:08:15;20.67;;;10.77;;
54515;SDS011;40422;45.892;4.738;2023-02-24T05:10:43;19.33;;;9.70;;
54515;SDS011;40422;45.892;4.738;2023-02-24T05:13:13;19.73;;;9.88;;
54515;SDS011;40422;45.892;4.738;2023-02-24T05:15:41;15.15;;;8.15;;
54515;SDS011;40422;45.892;4.738;2023-02-24T05:18:10;18.55;;;8.32;;
54515;SDS011;40422;45.892;4.738;2023-02-24T05:20:48;16.27;;;8.00;;
54515;SDS011;40422;45.892;4.738;2023-02-24T05:23:35;14.57;;;7.25;;
54515;SDS011;40422;45.892;4.738;2023-02-24T05:26:03;14.98;;;7.22;;
54515;SDS011;40422;45.892;4.738;2023-02-24T05:28:33;13.27;;;7.22;;
54515;SDS011;40422;45.892;4.738;2023-02-24T05:33:34;15.10;;;7.63;;
54515;SDS011;40422;45.892;4.738;2023-02-24T05:36:04;16.92;;;8.18;;
54515;SDS011;40422;45.892;4.738;2023-02-24T05:38:32;17.08;;;9.25;;
54515;SDS011;40422;45.892;4.738;2023-02-24T05:41:07;17.90;;;9.13;;
54515;SDS011;40422;45.892;4.738;2023-02-24T05:43:38;18.92;;;8.40;;
54515;SDS011;40422;45.892;4.738;2023-02-24T05:46:05;15.93;;;7.65;;
54515;SDS011;40422;45.892;4.738;2023-02-24T05:48:31;16.67;;;8.15;;
54515;SDS011;40422;45.892;4.738;2023-02-24T05:51:03;16.13;;;7.22;;
54515;SDS011;40422;45.892;4.738;2023-02-24T05:53:32;12.30;;;6.00;;
54515;SDS011;40422;45.892;4.738;2023-02-24T05:56:01;14.77;;;7.43;;
54515;SDS011;40422;45.892;4.738;2023-02-24T05:58:29;16.38;;;8.18;;
54515;SDS011;40422;45.892;4.738;2023-02-24T06:00:56;17.88;;;8.80;;
54515;SDS011;40422;45.892;4.738;2023-02-24T06:03:27;13.07;;;7.15;;
54515;SDS011;40422;45.892;4.738;2023-02-24T06:05:55;13.80;;;6.18;;
54515;SDS011;40422;45.892;4.738;2023-02-24T06:08:30;16.10;;;7.03;;
54515;SDS011;40422;45.892;4.738;2023-02-24T06:11:06;14.32;;;7.38;;
54515;SDS011;40422;45.892;4.738;2023-02-24T06:13:35;12.65;;;6.75;;
54515;SDS011;40422;45.892;4.738;2023-02-24T06:16:03;15.27;;;7.30;;
54515;SDS011;40422;45.892;4.738;2023-02-24T06:18:30;13.57;;;6.78;;
54515;SDS011;40422;45.892;4.738;2023-02-24T06:20:55;15.57;;;7.68;;
54515;SDS011;40422;45.892;4.738;2023-02-24T06:23:22;15.07;;;7.60;;
54515;SDS011;40422;45.892;4.738;2023-02-24T06:25:50;14.57;;;7.25;;
54515;SDS011;40422;45.892;4.738;2023-02-24T06:28:17;16.33;;;6.70;;
54515;SDS011;40422;45.892;4.738;2023-02-24T06:30:46;16.58;;;7.30;;
54515;SDS011;40422;45.892;4.738;2023-02-24T06:33:12;14.90;;;7.43;;
54515;SDS011;40422;45.892;4.738;2023-02-24T06:35:37;15.00;;;8.25;;
54515;SDS011;40422;45.892;4.738;2023-02-24T06:38:03;14.55;;;7.13;;
54515;SDS011;40422;45.892;4.738;2023-02-24T06:40:28;15.55;;;8.13;;
54515;SDS011;40422;45.892;4.738;2023-02-24T06:42:55;16.23;;;8.68;;
54515;SDS011;40422;45.892;4.738;2023-02-24T06:45:22;12.60;;;7.38;;
54515;SDS011;40422;45.892;4.738;2023-02-24T06:47:48;16.70;;;7.57;;
54515;SDS011;40422;45.892;4.738;2023-02-24T06:50:15;18.45;;;7.65;;
54515;SDS011;40422;45.892;4.738;2023-02-24T06:52:44;19.40;;;8.98;;
54515;SDS011;40422;45.892;4.738;2023-02-24T06:55:10;19.90;;;9.25;;
54515;SDS011;40422;45.892;4.738;2023-02-24T06:57:50;17.58;;;9.38;;
54515;SDS011;40422;45.892;4.738;2023-02-24T07:00:17;17.50;;;9.15;;
54515;SDS011;40422;45.892;4.738;2023-02-24T07:02:49;14.55;;;7.13;;
54515;SDS011;40422;45.892;4.738;2023-02-24T07:05:14;16.13;;;7.05;;
54515;SDS011;40422;45.892;4.738;2023-02-24T07:07:41;13.65;;;6.93;;
54515;SDS011;40422;45.892;4.738;2023-02-24T07:10:10;15.50;;;7.50;;
54515;SDS011;40422;45.892;4.738;2023-02-24T07:12:37;14.35;;;6.72;;
54515;SDS011;40422;45.892;4.738;2023-02-24T07:15:05;14.40;;;6.68;;
54515;SDS011;40422;45.892;4.738;2023-02-24T07:17:34;17.95;;;8.68;;
54515;SDS011;40422;45.892;4.738;2023-02-24T07:20:00;16.60;;;7.50;;
54515;SDS011;40422;45.892;4.738;2023-02-24T07:22:35;14.63;;;7.43;;
54515;SDS011;40422;45.892;4.738;2023-02-24T07:25:02;17.00;;;7.90;;
54515;SDS011;40422;45.892;4.738;2023-02-24T07:27:31;16.80;;;8.13;;
54515;SDS011;40422;45.892;4.738;2023-02-24T07:29:56;17.05;;;9.95;;
54515;SDS011;40422;45.892;4.738;2023-02-24T07:32:23;22.77;;;10.82;;
54515;SDS011;40422;45.892;4.738;2023-02-24T07:34:49;18.27;;;9.95;;
54515;SDS011;40422;45.892;4.738;2023-02-24T07:37:15;22.30;;;10.18;;
54515;SDS011;40422;45.892;4.738;2023-02-24T07:39:41;21.77;;;9.73;;
54515;SDS011;40422;45.892;4.738;2023-02-24T07:42:07;25.67;;;11.90;;
54515;SDS011;40422;45.892;4.738;2023-02-24T07:44:34;25.05;;;10.68;;
54515;SDS011;40422;45.892;4.738;2023-02-24T07:47:00;24.23;;;10.30;;
54515;SDS011;40422;45.892;4.738;2023-02-24T07:49:31;20.00;;;9.45;;
54515;SDS011;40422;45.892;4.738;2023-02-24T07:51:57;22.98;;;11.43;;
54515;SDS011;40422;45.892;4.738;2023-02-24T07:54:24;26.63;;;11.23;;
54515;SDS011;40422;45.892;4.738;2023-02-24T07:56:54;21.33;;;10.95;;
54515;SDS011;40422;45.892;4.738;2023-02-24T07:59:22;20.65;;;8.82;;
54515;SDS011;40422;45.892;4.738;2023-02-24T08:01:53;25.92;;;11.90;;
54515;SDS011;40422;45.892;4.738;2023-02-24T08:04:21;23.83;;;10.70;;
54515;SDS011;40422;45.892;4.738;2023-02-24T08:06:49;29.17;;;12.75;;
54515;SDS011;40422;45.892;4.738;2023-02-24T08:09:20;25.70;;;11.88;;
54515;SDS011;40422;45.892;4.738;2023-02-24T08:12:09;23.20;;;10.20;;
54515;SDS011;40422;45.892;4.738;2023-02-24T08:14:41;20.50;;;9.52;;
54515;SDS011;40422;45.892;4.738;2023-02-24T08:17:09;24.38;;;11.73;;
54515;SDS011;40422;45.892;4.738;2023-02-24T08:19:35;19.60;;;10.20;;
54515;SDS011;40422;45.892;4.738;2023-02-24T08:22:11;25.00;;;11.13;;
54515;SDS011;40422;45.892;4.738;2023-02-24T08:24:53;25.85;;;11.82;;
54515;SDS011;40422;45.892;4.738;2023-02-24T08:27:30;24.80;;;10.57;;
54515;SDS011;40422;45.892;4.738;2023-02-24T08:29:57;23.60;;;10.32;;
54515;SDS011;40422;45.892;4.738;2023-02-24T08:32:30;27.48;;;12.85;;
54515;SDS011;40422;45.892;4.738;2023-02-24T08:37:39;23.40;;;10.32;;
54515;SDS011;40422;45.892;4.738;2023-02-24T08:40:11;20.33;;;11.32;;
54515;SDS011;40422;45.892;4.738;2023-02-24T08:45:47;21.15;;;9.88;;
54515;SDS011;40422;45.892;4.738;2023-02-24T08:50:53;22.30;;;10.77;;
54515;SDS011;40422;45.892;4.738;2023-02-24T08:53:21;17.92;;;8.90;;
54515;SDS011;40422;45.892;4.738;2023-02-24T08:55:55;17.42;;;8.52;;
54515;SDS011;40422;45.892;4.738;2023-02-24T08:58:22;21.27;;;9.55;;
54515;SDS011;40422;45.892;4.738;2023-02-24T09:00:55;19.90;;;9.35;;
54515;SDS011;40422;45.892;4.738;2023-02-24T09:03:24;16.95;;;8.35;;
54515;SDS011;40422;45.892;4.738;2023-02-24T09:08:29;24.02;;;11.95;;
54515;SDS011;40422;45.892;4.738;2023-02-24T09:10:58;17.05;;;8.98;;
54515;SDS011;40422;45.892;4.738;2023-02-24T09:13:32;24.75;;;11.70;;
54515;SDS011;40422;45.892;4.738;2023-02-24T09:16:02;20.58;;;10.98;;
54515;SDS011;40422;45.892;4.738;2023-02-24T09:18:29;27.60;;;11.60;;
54515;SDS011;40422;45.892;4.738;2023-02-24T09:20:55;18.92;;;10.02;;
54515;SDS011;40422;45.892;4.738;2023-02-24T09:26:10;18.83;;;9.45;;
54515;SDS011;40422;45.892;4.738;2023-02-24T09:28:38;18.30;;;10.23;;
54515;SDS011;40422;45.892;4.738;2023-02-24T09:31:13;21.05;;;11.63;;
54515;SDS011;40422;45.892;4.738;2023-02-24T09:33:42;24.10;;;11.52;;
54515;SDS011;40422;45.892;4.738;2023-02-24T09:36:15;27.85;;;14.25;;
54515;SDS011;40422;45.892;4.738;2023-02-24T09:44:30;24.65;;;12.40;;
54515;SDS011;40422;45.892;4.738;2023-02-24T09:47:14;26.25;;;12.75;;
54515;SDS011;40422;45.892;4.738;2023-02-24T09:49:54;26.08;;;13.38;;
54515;SDS011;40422;45.892;4.738;2023-02-24T09:52:26;29.75;;;13.73;;
54515;SDS011;40422;45.892;4.738;2023-02-24T09:55:05;27.83;;;14.00;;
54515;SDS011;40422;45.892;4.738;2023-02-24T09:57:58;26.33;;;13.60;;
54515;SDS011;40422;45.892;4.738;2023-02-24T10:03:32;29.30;;;14.35;;
54515;SDS011;40422;45.892;4.738;2023-02-24T10:06:11;26.45;;;14.15;;
54515;SDS011;40422;45.892;4.738;2023-02-24T10:08:51;28.83;;;14.05;;
54515;SDS011;40422;45.892;4.738;2023-02-24T10:11:35;26.40;;;14.07;;
54515;SDS011;40422;45.892;4.738;2023-02-24T10:16:53;24.58;;;13.65;;
54515;SDS011;40422;45.892;4.738;2023-02-24T10:19:42;26.48;;;14.35;;
54515;SDS011;40422;45.892;4.738;2023-02-24T10:22:20;28.88;;;14.65;;
54515;SDS011;40422;45.892;4.738;2023-02-24T10:30:47;28.65;;;14.15;;
54515;SDS011;40422;45.892;4.738;2023-02-24T10:33:33;25.23;;;13.07;;
54515;SDS011;40422;45.892;4.738;2023-02-24T10:36:13;23.63;;;11.38;;
54515;SDS011;40422;45.892;4.738;2023-02-24T10:38:42;21.10;;;11.02;;
54515;SDS011;40422;45.892;4.738;2023-02-24T10:41:14;24.40;;;12.68;;
54515;SDS011;40422;45.892;4.738;2023-02-24T10:43:51;19.92;;;7.85;;
54515;SDS011;40422;45.892;4.738;2023-02-24T10:46:25;17.67;;;9.80;;
54515;SDS011;40422;45.892;4.738;2023-02-24T10:48:57;19.00;;;8.98;;
54515;SDS011;40422;45.892;4.738;2023-02-24T10:51:29;20.08;;;10.52;;
54515;SDS011;40422;45.892;4.738;2023-02-24T10:54:06;21.25;;;11.70;;
54515;SDS011;40422;45.892;4.738;2023-02-24T10:56:57;19.67;;;9.60;;
54515;SDS011;40422;45.892;4.738;2023-02-24T11:02:52;23.35;;;11.48;;
54515;SDS011;40422;45.892;4.738;2023-02-24T11:05:41;18.88;;;10.65;;
54515;SDS011;40422;45.892;4.738;2023-02-24T11:08:20;22.98;;;12.25;;
54515;SDS011;40422;45.892;4.738;2023-02-24T11:11:19;21.58;;;11.65;;
54515;SDS011;40422;45.892;4.738;2023-02-24T11:13:57;24.25;;;13.10;;
54515;SDS011;40422;45.892;4.738;2023-02-24T11:16:50;24.20;;;12.63;;
54515;SDS011;40422;45.892;4.738;2023-02-24T11:19:40;22.92;;;12.93;;
54515;SDS011;40422;45.892;4.738;2023-02-24T11:22:19;24.42;;;12.60;;
54515;SDS011;40422;45.892;4.738;2023-02-24T11:24:48;20.88;;;11.88;;
54515;SDS011;40422;45.892;4.738;2023-02-24T11:27:16;23.05;;;12.43;;
54515;SDS011;40422;45.892;4.738;2023-02-24T11:35:08;19.30;;;10.77;;
54515;SDS011;40422;45.892;4.738;2023-02-24T11:37:43;24.83;;;13.38;;
54515;SDS011;40422;45.892;4.738;2023-02-24T11:40:25;27.58;;;13.88;;
54515;SDS011;40422;45.892;4.738;2023-02-24T11:42:56;21.77;;;12.25;;
54515;SDS011;40422;45.892;4.738;2023-02-24T11:48:28;28.23;;;13.95;;
54515;SDS011;40422;45.892;4.738;2023-02-24T11:51:02;21.70;;;11.70;;
54515;SDS011;40422;45.892;4.738;2023-02-24T11:53:33;20.10;;;11.30;;
54515;SDS011;40422;45.892;4.738;2023-02-24T11:56:07;23.33;;;12.90;;
54515;SDS011;40422;45.892;4.738;2023-02-24T12:06:50;20.73;;;13.00;;
54515;SDS011;40422;45.892;4.738;2023-02-24T12:09:17;15.98;;;10.52;;
54515;SDS011;40422;45.892;4.738;2023-02-24T12:12:00;23.25;;;12.60;;
54515;SDS011;40422;45.892;4.738;2023-02-24T12:14:34;22.85;;;13.00;;
54515;SDS011;40422;45.892;4.738;2023-02-24T12:17:19;24.08;;;12.73;;
54515;SDS011;40422;45.892;4.738;2023-02-24T12:20:02;21.08;;;12.18;;
54515;SDS011;40422;45.892;4.738;2023-02-24T12:22:42;17.63;;;10.35;;
54515;SDS011;40422;45.892;4.738;2023-02-24T12:25:14;17.55;;;9.25;;
54515;SDS011;40422;45.892;4.738;2023-02-24T12:36:17;21.50;;;12.18;;
54515;SDS011;40422;45.892;4.738;2023-02-24T12:39:05;22.77;;;12.82;;
54515;SDS011;40422;45.892;4.738;2023-02-24T12:47:11;24.25;;;13.10;;
54515;SDS011;40422;45.892;4.738;2023-02-24T12:52:52;24.38;;;12.85;;
54515;SDS011;40422;45.892;4.738;2023-02-24T12:58:24;22.40;;;13.63;;
54515;SDS011;40422;45.892;4.738;2023-02-24T13:01:06;18.77;;;9.80;;
54515;SDS011;40422;45.892;4.738;2023-02-24T13:04:13;21.08;;;11.93;;
54515;SDS011;40422;45.892;4.738;2023-02-24T13:07:35;23.05;;;12.13;;
54515;SDS011;40422;45.892;4.738;2023-02-24T13:15:33;20.42;;;12.02;;
54515;SDS011;40422;45.892;4.738;2023-02-24T13:17:59;22.33;;;11.57;;
54515;SDS011;40422;45.892;4.738;2023-02-24T13:22:51;19.33;;;10.38;;
54515;SDS011;40422;45.892;4.738;2023-02-24T13:25:20;20.10;;;9.80;;
54515;SDS011;40422;45.892;4.738;2023-02-24T13:27:55;15.57;;;8.95;;
54515;SDS011;40422;45.892;4.738;2023-02-24T13:30:34;16.55;;;8.30;;
54515;SDS011;40422;45.892;4.738;2023-02-24T13:33:04;15.40;;;7.90;;
54515;SDS011;40422;45.892;4.738;2023-02-24T13:35:43;16.73;;;8.68;;
54515;SDS011;40422;45.892;4.738;2023-02-24T13:38:33;16.95;;;7.50;;
54515;SDS011;40422;45.892;4.738;2023-02-24T13:43:55;16.63;;;7.35;;
54515;SDS011;40422;45.892;4.738;2023-02-24T13:46:26;13.32;;;6.65;;
54515;SDS011;40422;45.892;4.738;2023-02-24T13:52:01;14.35;;;6.78;;
54515;SDS011;40422;45.892;4.738;2023-02-24T13:57:42;15.32;;;4.22;;
54515;SDS011;40422;45.892;4.738;2023-02-24T14:00:21;14.82;;;4.00;;
54515;SDS011;40422;45.892;4.738;2023-02-24T14:03:00;17.35;;;3.50;;
54515;SDS011;40422;45.892;4.738;2023-02-24T14:05:35;12.35;;;3.80;;
54515;SDS011;40422;45.892;4.738;2023-02-24T14:08:01;6.90;;;2.80;;
54515;SDS011;40422;45.892;4.738;2023-02-24T14:10:30;7.47;;;2.65;;
54515;SDS011;40422;45.892;4.738;2023-02-24T14:13:04;14.60;;;3.35;;
54515;SDS011;40422;45.892;4.738;2023-02-24T14:15:38;7.65;;;2.35;;
54515;SDS011;40422;45.892;4.738;2023-02-24T14:18:15;10.45;;;3.22;;
54515;SDS011;40422;45.892;4.738;2023-02-24T14:20:44;8.35;;;2.55;;
54515;SDS011;40422;45.892;4.738;2023-02-24T14:23:19;15.77;;;2.70;;
54515;SDS011;40422;45.892;4.738;2023-02-24T14:25:47;9.50;;;3.30;;
54515;SDS011;40422;45.892;4.738;2023-02-24T14:28:20;8.73;;;3.13;;
54515;SDS011;40422;45.892;4.738;2023-02-24T14:30:52;9.40;;;2.72;;
54515;SDS011;40422;45.892;4.738;2023-02-24T14:33:24;7.57;;;2.20;;
54515;SDS011;40422;45.892;4.738;2023-02-24T14:35:54;8.57;;;2.30;;
54515;SDS011;40422;45.892;4.738;2023-02-24T14:38:36;9.73;;;1.85;;
54515;SDS011;40422;45.892;4.738;2023-02-24T14:41:05;7.45;;;2.17;;
54515;SDS011;40422;45.892;4.738;2023-02-24T14:43:41;8.95;;;2.20;;
54515;SDS011;40422;45.892;4.738;2023-02-24T14:46:07;6.30;;;2.10;;
54515;SDS011;40422;45.892;4.738;2023-02-24T14:48:33;5.72;;;2.00;;
54515;SDS011;40422;45.892;4.738;2023-02-24T14:53:38;4.85;;;1.55;;
54515;SDS011;40422;45.892;4.738;2023-02-24T14:56:12;6.13;;;1.80;;
54515;SDS011;40422;45.892;4.738;2023-02-24T14:58:43;4.90;;;1.55;;
54515;SDS011;40422;45.892;4.738;2023-02-24T15:04:00;5.10;;;1.38;;
54515;SDS011;40422;45.892;4.738;2023-02-24T15:06:40;5.63;;;2.00;;
54515;SDS011;40422;45.892;4.738;2023-02-24T15:09:13;5.15;;;1.65;;
54515;SDS011;40422;45.892;4.738;2023-02-24T15:11:42;4.00;;;1.50;;
54515;SDS011;40422;45.892;4.738;2023-02-24T15:19:32;3.13;;;1.40;;
54515;SDS011;40422;45.892;4.738;2023-02-24T15:22:03;6.60;;;1.92;;
54515;SDS011;40422;45.892;4.738;2023-02-24T15:24:42;6.40;;;1.67;;
54515;SDS011;40422;45.892;4.738;2023-02-24T15:29:39;3.55;;;1.50;;
54515;SDS011;40422;45.892;4.738;2023-02-24T15:32:14;4.05;;;1.50;;
54515;SDS011;40422;45.892;4.738;2023-02-24T15:34:45;2.83;;;1.23;;
54515;SDS011;40422;45.892;4.738;2023-02-24T15:37:14;6.22;;;1.38;;
54515;SDS011;40422;45.892;4.738;2023-02-24T15:39:46;5.88;;;1.50;;
54515;SDS011;40422;45.892;4.738;2023-02-24T15:42:23;3.25;;;1.23;;
54515;SDS011;40422;45.892;4.738;2023-02-24T15:45:19;4.40;;;1.50;;
54515;SDS011;40422;45.892;4.738;2023-02-24T15:48:00;4.22;;;1.23;;
54515;SDS011;40422;45.892;4.738;2023-02-24T15:50:28;3.20;;;1.30;;
54515;SDS011;40422;45.892;4.738;2023-02-24T15:52:56;4.45;;;1.30;;
54515;SDS011;40422;45.892;4.738;2023-02-24T15:55:24;4.18;;;1.30;;
54515;SDS011;40422;45.892;4.738;2023-02-24T15:57:56;4.78;;;1.70;;
54515;SDS011;40422;45.892;4.738;2023-02-24T16:00:23;3.72;;;1.40;;
54515;SDS011;40422;45.892;4.738;2023-02-24T16:02:49;5.45;;;1.55;;
54515;SDS011;40422;45.892;4.738;2023-02-24T16:05:14;3.35;;;1.25;;
54515;SDS011;40422;45.892;4.738;2023-02-24T16:07:41;4.43;;;1.70;;
54515;SDS011;40422;45.892;4.738;2023-02-24T16:10:16;5.20;;;1.60;;
54515;SDS011;40422;45.892;4.738;2023-02-24T16:12:46;4.65;;;1.60;;
54515;SDS011;40422;45.892;4.738;2023-02-24T16:15:19;2.65;;;1.15;;
54515;SDS011;40422;45.892;4.738;2023-02-24T16:17:47;6.30;;;1.75;;
54515;SDS011;40422;45.892;4.738;2023-02-24T16:20:18;4.20;;;1.70;;
54515;SDS011;40422;45.892;4.738;2023-02-24T16:22:55;5.38;;;1.60;;
54515;SDS011;40422;45.892;4.738;2023-02-24T16:25:22;3.78;;;1.33;;
54515;SDS011;40422;45.892;4.738;2023-02-24T16:27:48;3.47;;;1.52;;
54515;SDS011;40422;45.892;4.738;2023-02-24T16:30:17;4.95;;;1.60;;
54515;SDS011;40422;45.892;4.738;2023-02-24T16:32:43;4.20;;;1.30;;
54515;SDS011;40422;45.892;4.738;2023-02-24T16:35:10;3.40;;;1.45;;
54515;SDS011;40422;45.892;4.738;2023-02-24T16:37:37;2.75;;;1.40;;
54515;SDS011;40422;45.892;4.738;2023-02-24T16:40:09;6.95;;;1.48;;
54515;SDS011;40422;45.892;4.738;2023-02-24T16:42:41;5.85;;;1.60;;
54515;SDS011;40422;45.892;4.738;2023-02-24T16:45:09;4.22;;;1.58;;
54515;SDS011;40422;45.892;4.738;2023-02-24T16:47:35;4.72;;;1.80;;
54515;SDS011;40422;45.892;4.738;2023-02-24T16:50:00;8.93;;;2.70;;
54515;SDS011;40422;45.892;4.738;2023-02-24T16:52:26;10.23;;;2.13;;
54515;SDS011;40422;45.892;4.738;2023-02-24T16:54:52;8.20;;;2.40;;
54515;SDS011;40422;45.892;4.738;2023-02-24T16:57:18;5.38;;;2.10;;
54515;SDS011;40422;45.892;4.738;2023-02-24T16:59:49;5.40;;;1.58;;
54515;SDS011;40422;45.892;4.738;2023-02-24T17:02:16;11.68;;;2.10;;
54515;SDS011;40422;45.892;4.738;2023-02-24T17:04:45;5.55;;;2.10;;
54515;SDS011;40422;45.892;4.738;2023-02-24T17:07:11;7.07;;;1.67;;
54515;SDS011;40422;45.892;4.738;2023-02-24T17:09:38;4.97;;;1.60;;
54515;SDS011;40422;45.892;4.738;2023-02-24T17:12:04;6.65;;;2.03;;
54515;SDS011;40422;45.892;4.738;2023-02-24T17:14:30;6.72;;;1.70;;
54515;SDS011;40422;45.892;4.738;2023-02-24T17:16:55;5.90;;;1.70;;
54515;SDS011;40422;45.892;4.738;2023-02-24T17:19:21;5.32;;;1.80;;
54515;SDS011;40422;45.892;4.738;2023-02-24T17:21:46;6.20;;;2.30;;
54515;SDS011;40422;45.892;4.738;2023-02-24T17:24:15;5.95;;;2.08;;
54515;SDS011;40422;45.892;4.738;2023-02-24T17:26:41;7.18;;;1.90;;
54515;SDS011;40422;45.892;4.738;2023-02-24T17:29:07;7.47;;;2.10;;
54515;SDS011;40422;45.892;4.738;2023-02-24T17:31:33;7.30;;;2.45;;
54515;SDS011;40422;45.892;4.738;2023-02-24T17:33:59;6.45;;;1.95;;
54515;SDS011;40422;45.892;4.738;2023-02-24T17:36:26;4.90;;;1.65;;
54515;SDS011;40422;45.892;4.738;2023-02-24T17:38:52;7.30;;;2.10;;
54515;SDS011;40422;45.892;4.738;2023-02-24T17:41:18;5.63;;;1.95;;
54515;SDS011;40422;45.892;4.738;2023-02-24T17:43:43;3.65;;;1.98;;
54515;SDS011;40422;45.892;4.738;2023-02-24T17:46:09;6.97;;;2.00;;
54515;SDS011;40422;45.892;4.738;2023-02-24T17:48:34;6.43;;;2.35;;
54515;SDS011;40422;45.892;4.738;2023-02-24T17:51:00;9.07;;;2.47;;
54515;SDS011;40422;45.892;4.738;2023-02-24T17:53:29;5.97;;;2.55;;
54515;SDS011;40422;45.892;4.738;2023-02-24T17:56:02;7.30;;;2.10;;
54515;SDS011;40422;45.892;4.738;2023-02-24T17:58:29;5.17;;;1.97;;
54515;SDS011;40422;45.892;4.738;2023-02-24T18:00:55;6.93;;;2.45;;
54515;SDS011;40422;45.892;4.738;2023-02-24T18:03:21;6.10;;;2.70;;
54515;SDS011;40422;45.892;4.738;2023-02-24T18:05:46;5.38;;;2.22;;
54515;SDS011;40422;45.892;4.738;2023-02-24T18:08:12;7.40;;;2.42;;
54515;SDS011;40422;45.892;4.738;2023-02-24T18:10:38;5.50;;;2.58;;
54515;SDS011;40422;45.892;4.738;2023-02-24T18:13:03;6.72;;;2.60;;
54515;SDS011;40422;45.892;4.738;2023-02-24T18:15:29;5.95;;;2.42;;
54515;SDS011;40422;45.892;4.738;2023-02-24T18:17:54;5.85;;;2.25;;
54515;SDS011;40422;45.892;4.738;2023-02-24T18:20:20;6.05;;;2.17;;
54515;SDS011;40422;45.892;4.738;2023-02-24T18:22:46;7.53;;;2.38;;
54515;SDS011;40422;45.892;4.738;2023-02-24T18:25:11;6.32;;;2.13;;
54515;SDS011;40422;45.892;4.738;2023-02-24T18:27:37;5.68;;;2.30;;
54515;SDS011;40422;45.892;4.738;2023-02-24T18:30:03;6.05;;;2.30;;
54515;SDS011;40422;45.892;4.738;2023-02-24T18:32:30;5.35;;;2.05;;
54515;SDS011;40422;45.892;4.738;2023-02-24T18:34:56;5.85;;;2.28;;
54515;SDS011;40422;45.892;4.738;2023-02-24T18:37:22;5.20;;;2.00;;
54515;SDS011;40422;45.892;4.738;2023-02-24T18:39:48;4.85;;;1.98;;
54515;SDS011;40422;45.892;4.738;2023-02-24T18:42:14;5.60;;;2.33;;
54515;SDS011;40422;45.892;4.738;2023-02-24T18:44:40;5.97;;;1.98;;
54515;SDS011;40422;45.892;4.738;2023-02-24T18:47:05;12.18;;;3.13;;
54515;SDS011;40422;45.892;4.738;2023-02-24T18:49:33;9.85;;;2.80;;
54515;SDS011;40422;45.892;4.738;2023-02-24T18:52:00;8.52;;;3.08;;
54515;SDS011;40422;45.892;4.738;2023-02-24T18:54:26;7.68;;;3.15;;
54515;SDS011;40422;45.892;4.738;2023-02-24T18:56:52;9.60;;;3.15;;
54515;SDS011;40422;45.892;4.738;2023-02-24T18:59:18;8.30;;;2.95;;
54515;SDS011;40422;45.892;4.738;2023-02-24T19:01:43;7.38;;;2.80;;
54515;SDS011;40422;45.892;4.738;2023-02-24T19:04:10;8.05;;;2.72;;
54515;SDS011;40422;45.892;4.738;2023-02-24T19:06:36;7.40;;;3.20;;
54515;SDS011;40422;45.892;4.738;2023-02-24T19:09:08;7.47;;;2.83;;
54515;SDS011;40422;45.892;4.738;2023-02-24T19:11:35;6.47;;;2.70;;
54515;SDS011;40422;45.892;4.738;2023-02-24T19:14:01;9.50;;;3.08;;
54515;SDS011;40422;45.892;4.738;2023-02-24T19:16:28;8.80;;;3.33;;
54515;SDS011;40422;45.892;4.738;2023-02-24T19:18:54;6.93;;;3.30;;
54515;SDS011;40422;45.892;4.738;2023-02-24T19:21:21;7.25;;;3.53;;
54515;SDS011;40422;45.892;4.738;2023-02-24T19:23:48;7.95;;;3.40;;
54515;SDS011;40422;45.892;4.738;2023-02-24T19:26:15;7.25;;;3.40;;
54515;SDS011;40422;45.892;4.738;2023-02-24T19:28:47;10.10;;;4.13;;
54515;SDS011;40422;45.892;4.738;2023-02-24T19:31:14;8.80;;;3.75;;
54515;SDS011;40422;45.892;4.738;2023-02-24T19:33:41;10.15;;;4.00;;
54515;SDS011;40422;45.892;4.738;2023-02-24T19:36:07;8.50;;;3.70;;
54515;SDS011;40422;45.892;4.738;2023-02-24T19:38:34;9.38;;;3.85;;
54515;SDS011;40422;45.892;4.738;2023-02-24T19:41:00;8.93;;;3.60;;
54515;SDS011;40422;45.892;4.738;2023-02-24T19:43:26;7.97;;;3.42;;
54515;SDS011;40422;45.892;4.738;2023-02-24T19:45:52;6.88;;;3.25;;
54515;SDS011;40422;45.892;4.738;2023-02-24T19:48:17;6.70;;;2.67;;
54515;SDS011;40422;45.892;4.738;2023-02-24T19:50:43;9.23;;;2.88;;
54515;SDS011;40422;45.892;4.738;2023-02-24T19:53:10;8.77;;;2.90;;
54515;SDS011;40422;45.892;4.738;2023-02-24T19:55:36;7.85;;;3.38;;
54515;SDS011;40422;45.892;4.738;2023-02-24T19:58:02;9.52;;;3.90;;
54515;SDS011;40422;45.892;4.738;2023-02-24T20:00:28;8.50;;;4.15;;
54515;SDS011;40422;45.892;4.738;2023-02-24T20:02:54;11.05;;;4.93;;
54515;SDS011;40422;45.892;4.738;2023-02-24T20:05:19;8.80;;;3.97;;
54515;SDS011;40422;45.892;4.738;2023-02-24T20:07:45;10.15;;;4.72;;
54515;SDS011;40422;45.892;4.738;2023-02-24T20:10:11;8.32;;;3.92;;
54515;SDS011;40422;45.892;4.738;2023-02-24T20:12:40;9.73;;;3.75;;
54515;SDS011;40422;45.892;4.738;2023-02-24T20:15:05;9.60;;;4.05;;
54515;SDS011;40422;45.892;4.738;2023-02-24T20:17:32;10.25;;;4.13;;
54515;SDS011;40422;45.892;4.738;2023-02-24T20:19:58;13.32;;;5.30;;
54515;SDS011;40422;45.892;4.738;2023-02-24T20:22:24;11.45;;;4.20;;
54515;SDS011;40422;45.892;4.738;2023-02-24T20:24:49;9.60;;;3.65;;
54515;SDS011;40422;45.892;4.738;2023-02-24T20:27:15;10.38;;;3.55;;
54515;SDS011;40422;45.892;4.738;2023-02-24T20:29:42;9.38;;;3.10;;
54515;SDS011;40422;45.892;4.738;2023-02-24T20:32:08;8.30;;;3.47;;
54515;SDS011;40422;45.892;4.738;2023-02-24T20:34:34;7.53;;;3.03;;
54515;SDS011;40422;45.892;4.738;2023-02-24T20:37:01;8.38;;;3.20;;
54515;SDS011;40422;45.892;4.738;2023-02-24T20:39:29;8.95;;;3.90;;
54515;SDS011;40422;45.892;4.738;2023-02-24T20:41:56;7.75;;;3.67;;
54515;SDS011;40422;45.892;4.738;2023-02-24T20:44:21;8.40;;;3.47;;
54515;SDS011;40422;45.892;4.738;2023-02-24T20:46:47;10.18;;;3.65;;